Aviation Digital Data Service (ADDS)

Output produced by METARs form (2213 UTC 17 November 2018)
found at http://www.aviationweather.gov/metar/data/
 
KTUS 171720Z 1718/1818 21004KT P6SM SCT250 
     FM172100 30006KT P6SM BKN250 
     FM180500 14007KT P6SM BKN200